Sligo Airport - TAF
(Terminal Area Forecast)

Issued at 01:51 UTC on Sat. 19-Jan-19

--- METARS(SA) ---

METAR EISG(SLIGO) 190130Z AUTO 15004KT 100V210 9999 SCT035 06/06

Q1002 =

--- TAFS() ---

TAF EISG(SLIGO) 182300Z 1900/1909 16006KT 9999 FEW012 SCT030 BECMG

1900/1903 12005KT PROB40 TEMPO 1900/1909 2500 -SHRA BR BKN003 PROB30

TEMPO 1901/1908 0500 FG BKN001 BECMG 1907/1909 15005KT =

--- SIGMETS(WS) ---

IE - No VALID SIGMETS/Warnings FOR THIS AREA

--- SIGMETS Volcanic(WV) ---

IE - No VALID SIGMETS/Warnings FOR THIS AREA

--- SIGMETS(WS) ---

UK - No VALID SIGMETS/Warnings FOR THIS AREA

Sligo Airport - METARs

Latest METARs for Sligo and Donegal Airports - updated every 30 mins